sensor_id;sensor_type;location;lat;lon;timestamp;P1;durP1;ratioP1;P2;durP2;ratioP2
56141;SDS011;42018;48.588;10.836;2023-02-01T00:01:57;9.77;;;5.05;;
56141;SDS011;42018;48.588;10.836;2023-02-01T00:04:43;7.43;;;4.50;;
56141;SDS011;42018;48.588;10.836;2023-02-01T00:07:28;8.60;;;4.53;;
56141;SDS011;42018;48.588;10.836;2023-02-01T00:10:17;7.20;;;4.30;;
56141;SDS011;42018;48.588;10.836;2023-02-01T00:13:02;10.85;;;4.80;;
56141;SDS011;42018;48.588;10.836;2023-02-01T00:15:48;6.75;;;4.05;;
56141;SDS011;42018;48.588;10.836;2023-02-01T00:18:33;8.35;;;5.07;;
56141;SDS011;42018;48.588;10.836;2023-02-01T00:21:19;7.38;;;4.63;;
56141;SDS011;42018;48.588;10.836;2023-02-01T00:24:05;7.85;;;4.93;;
56141;SDS011;42018;48.588;10.836;2023-02-01T00:26:51;8.07;;;5.25;;
56141;SDS011;42018;48.588;10.836;2023-02-01T00:29:36;8.88;;;4.53;;
56141;SDS011;42018;48.588;10.836;2023-02-01T00:32:22;7.47;;;4.78;;
56141;SDS011;42018;48.588;10.836;2023-02-01T00:35:07;7.57;;;5.05;;
56141;SDS011;42018;48.588;10.836;2023-02-01T00:37:53;9.07;;;5.60;;
56141;SDS011;42018;48.588;10.836;2023-02-01T00:40:38;9.43;;;5.05;;
56141;SDS011;42018;48.588;10.836;2023-02-01T00:43:24;9.07;;;4.65;;
56141;SDS011;42018;48.588;10.836;2023-02-01T00:46:09;9.15;;;5.30;;
56141;SDS011;42018;48.588;10.836;2023-02-01T00:48:56;8.82;;;5.30;;
56141;SDS011;42018;48.588;10.836;2023-02-01T00:51:41;7.28;;;4.43;;
56141;SDS011;42018;48.588;10.836;2023-02-01T00:54:27;9.02;;;5.07;;
56141;SDS011;42018;48.588;10.836;2023-02-01T00:57:12;8.52;;;4.90;;
56141;SDS011;42018;48.588;10.836;2023-02-01T00:59:57;9.25;;;5.13;;
56141;SDS011;42018;48.588;10.836;2023-02-01T01:02:43;7.10;;;5.13;;
56141;SDS011;42018;48.588;10.836;2023-02-01T01:05:28;8.25;;;5.18;;
56141;SDS011;42018;48.588;10.836;2023-02-01T01:08:14;7.75;;;4.47;;
56141;SDS011;42018;48.588;10.836;2023-02-01T01:11:04;9.63;;;5.53;;
56141;SDS011;42018;48.588;10.836;2023-02-01T01:13:52;8.23;;;4.72;;
56141;SDS011;42018;48.588;10.836;2023-02-01T01:16:38;9.23;;;5.15;;
56141;SDS011;42018;48.588;10.836;2023-02-01T01:19:23;8.70;;;4.95;;
56141;SDS011;42018;48.588;10.836;2023-02-01T01:22:09;8.00;;;4.95;;
56141;SDS011;42018;48.588;10.836;2023-02-01T01:24:54;8.80;;;4.85;;
56141;SDS011;42018;48.588;10.836;2023-02-01T01:27:40;8.68;;;5.07;;
56141;SDS011;42018;48.588;10.836;2023-02-01T01:30:25;7.05;;;4.63;;
56141;SDS011;42018;48.588;10.836;2023-02-01T01:33:10;8.80;;;5.45;;
56141;SDS011;42018;48.588;10.836;2023-02-01T01:35:56;12.38;;;5.13;;
56141;SDS011;42018;48.588;10.836;2023-02-01T01:38:41;9.57;;;5.07;;
56141;SDS011;42018;48.588;10.836;2023-02-01T01:41:30;8.52;;;4.85;;
56141;SDS011;42018;48.588;10.836;2023-02-01T01:47:41;7.95;;;4.97;;
56141;SDS011;42018;48.588;10.836;2023-02-01T01:50:33;9.93;;;6.10;;
56141;SDS011;42018;48.588;10.836;2023-02-01T01:53:27;8.80;;;4.78;;
56141;SDS011;42018;48.588;10.836;2023-02-01T01:56:16;7.93;;;4.90;;
56141;SDS011;42018;48.588;10.836;2023-02-01T01:59:02;7.38;;;4.60;;
56141;SDS011;42018;48.588;10.836;2023-02-01T02:01:50;10.43;;;5.05;;
56141;SDS011;42018;48.588;10.836;2023-02-01T02:04:37;8.10;;;4.93;;
56141;SDS011;42018;48.588;10.836;2023-02-01T02:07:25;8.15;;;4.55;;
56141;SDS011;42018;48.588;10.836;2023-02-01T02:10:15;7.20;;;4.60;;
56141;SDS011;42018;48.588;10.836;2023-02-01T02:13:01;6.65;;;4.47;;
56141;SDS011;42018;48.588;10.836;2023-02-01T02:15:51;9.00;;;4.55;;
56141;SDS011;42018;48.588;10.836;2023-02-01T02:46:28;6.13;;;3.75;;
56141;SDS011;42018;48.588;10.836;2023-02-01T02:50:03;6.43;;;3.63;;
56141;SDS011;42018;48.588;10.836;2023-02-01T02:53:14;6.55;;;4.03;;
56141;SDS011;42018;48.588;10.836;2023-02-01T02:56:21;6.50;;;4.05;;
56141;SDS011;42018;48.588;10.836;2023-02-01T02:59:27;5.85;;;3.63;;
56141;SDS011;42018;48.588;10.836;2023-02-01T03:02:33;6.10;;;3.90;;
56141;SDS011;42018;48.588;10.836;2023-02-01T03:05:40;7.15;;;4.30;;
56141;SDS011;42018;48.588;10.836;2023-02-01T03:08:28;6.75;;;4.18;;
56141;SDS011;42018;48.588;10.836;2023-02-01T03:11:16;8.20;;;4.25;;
56141;SDS011;42018;48.588;10.836;2023-02-01T03:14:01;6.65;;;3.83;;
56141;SDS011;42018;48.588;10.836;2023-02-01T03:16:52;6.22;;;3.80;;
56141;SDS011;42018;48.588;10.836;2023-02-01T03:19:46;6.90;;;4.18;;
56141;SDS011;42018;48.588;10.836;2023-02-01T03:22:35;6.35;;;3.63;;
56141;SDS011;42018;48.588;10.836;2023-02-01T03:25:25;6.40;;;3.58;;
56141;SDS011;42018;48.588;10.836;2023-02-01T03:28:14;6.60;;;3.85;;
56141;SDS011;42018;48.588;10.836;2023-02-01T03:31:04;8.68;;;4.38;;
56141;SDS011;42018;48.588;10.836;2023-02-01T03:33:49;7.55;;;4.63;;
56141;SDS011;42018;48.588;10.836;2023-02-01T03:36:37;6.95;;;4.25;;
56141;SDS011;42018;48.588;10.836;2023-02-01T03:39:32;7.25;;;3.92;;
56141;SDS011;42018;48.588;10.836;2023-02-01T03:42:44;6.63;;;4.43;;
56141;SDS011;42018;48.588;10.836;2023-02-01T03:45:36;6.43;;;3.70;;
56141;SDS011;42018;48.588;10.836;2023-02-01T03:48:27;6.30;;;4.10;;
56141;SDS011;42018;48.588;10.836;2023-02-01T03:51:15;7.07;;;4.15;;
56141;SDS011;42018;48.588;10.836;2023-02-01T03:54:02;6.28;;;3.92;;
56141;SDS011;42018;48.588;10.836;2023-02-01T03:56:51;6.70;;;4.03;;
56141;SDS011;42018;48.588;10.836;2023-02-01T03:59:40;8.35;;;4.47;;
56141;SDS011;42018;48.588;10.836;2023-02-01T04:02:26;7.43;;;3.88;;
56141;SDS011;42018;48.588;10.836;2023-02-01T04:05:11;6.32;;;3.78;;
56141;SDS011;42018;48.588;10.836;2023-02-01T04:07:57;8.18;;;3.83;;
56141;SDS011;42018;48.588;10.836;2023-02-01T04:10:42;6.32;;;4.25;;
56141;SDS011;42018;48.588;10.836;2023-02-01T04:13:28;6.20;;;3.67;;
56141;SDS011;42018;48.588;10.836;2023-02-01T04:16:14;7.05;;;4.28;;
56141;SDS011;42018;48.588;10.836;2023-02-01T04:18:59;7.25;;;4.07;;
56141;SDS011;42018;48.588;10.836;2023-02-01T04:21:45;5.85;;;3.70;;
56141;SDS011;42018;48.588;10.836;2023-02-01T04:24:30;6.75;;;3.75;;
56141;SDS011;42018;48.588;10.836;2023-02-01T04:27:16;6.13;;;3.95;;
56141;SDS011;42018;48.588;10.836;2023-02-01T04:30:02;6.22;;;3.92;;
56141;SDS011;42018;48.588;10.836;2023-02-01T04:32:48;6.88;;;4.05;;
56141;SDS011;42018;48.588;10.836;2023-02-01T04:35:34;6.47;;;3.60;;
56141;SDS011;42018;48.588;10.836;2023-02-01T04:38:19;5.85;;;3.70;;
56141;SDS011;42018;48.588;10.836;2023-02-01T04:41:04;6.10;;;3.40;;
56141;SDS011;42018;48.588;10.836;2023-02-01T04:43:50;6.10;;;3.10;;
56141;SDS011;42018;48.588;10.836;2023-02-01T04:46:38;6.57;;;3.33;;
56141;SDS011;42018;48.588;10.836;2023-02-01T04:49:23;6.55;;;3.65;;
56141;SDS011;42018;48.588;10.836;2023-02-01T04:52:10;7.47;;;3.55;;
56141;SDS011;42018;48.588;10.836;2023-02-01T04:54:55;5.55;;;2.80;;
56141;SDS011;42018;48.588;10.836;2023-02-01T04:57:42;4.85;;;2.50;;
56141;SDS011;42018;48.588;10.836;2023-02-01T05:00:27;5.70;;;2.92;;
56141;SDS011;42018;48.588;10.836;2023-02-01T05:03:13;5.07;;;2.63;;
56141;SDS011;42018;48.588;10.836;2023-02-01T05:05:58;4.53;;;2.80;;
56141;SDS011;42018;48.588;10.836;2023-02-01T05:08:45;6.43;;;3.17;;
56141;SDS011;42018;48.588;10.836;2023-02-01T05:11:30;4.65;;;2.75;;
56141;SDS011;42018;48.588;10.836;2023-02-01T05:14:34;5.57;;;2.75;;
56141;SDS011;42018;48.588;10.836;2023-02-01T05:17:19;4.25;;;2.50;;
56141;SDS011;42018;48.588;10.836;2023-02-01T05:20:05;6.30;;;3.40;;
56141;SDS011;42018;48.588;10.836;2023-02-01T05:22:51;4.70;;;2.65;;
56141;SDS011;42018;48.588;10.836;2023-02-01T05:25:36;5.28;;;2.53;;
56141;SDS011;42018;48.588;10.836;2023-02-01T05:28:22;4.72;;;2.72;;
56141;SDS011;42018;48.588;10.836;2023-02-01T05:31:13;5.13;;;2.70;;
56141;SDS011;42018;48.588;10.836;2023-02-01T05:34:02;4.25;;;2.50;;
56141;SDS011;42018;48.588;10.836;2023-02-01T05:36:47;4.82;;;2.95;;
56141;SDS011;42018;48.588;10.836;2023-02-01T05:39:33;5.10;;;2.65;;
56141;SDS011;42018;48.588;10.836;2023-02-01T05:42:18;5.30;;;3.20;;
56141;SDS011;42018;48.588;10.836;2023-02-01T05:45:04;4.75;;;2.65;;
56141;SDS011;42018;48.588;10.836;2023-02-01T05:47:50;4.82;;;2.80;;
56141;SDS011;42018;48.588;10.836;2023-02-01T05:50:35;4.30;;;2.28;;
56141;SDS011;42018;48.588;10.836;2023-02-01T05:53:21;5.43;;;3.08;;
56141;SDS011;42018;48.588;10.836;2023-02-01T05:56:06;4.78;;;2.80;;
56141;SDS011;42018;48.588;10.836;2023-02-01T05:58:52;4.95;;;2.80;;
56141;SDS011;42018;48.588;10.836;2023-02-01T06:01:37;4.50;;;2.38;;
56141;SDS011;42018;48.588;10.836;2023-02-01T06:04:22;4.80;;;2.67;;
56141;SDS011;42018;48.588;10.836;2023-02-01T06:07:08;4.38;;;2.50;;
56141;SDS011;42018;48.588;10.836;2023-02-01T06:09:55;4.63;;;2.67;;
56141;SDS011;42018;48.588;10.836;2023-02-01T06:12:40;4.10;;;2.33;;
56141;SDS011;42018;48.588;10.836;2023-02-01T06:15:25;4.85;;;2.50;;
56141;SDS011;42018;48.588;10.836;2023-02-01T06:18:11;4.80;;;2.67;;
56141;SDS011;42018;48.588;10.836;2023-02-01T06:20:57;4.40;;;2.47;;
56141;SDS011;42018;48.588;10.836;2023-02-01T06:23:45;5.00;;;2.63;;
56141;SDS011;42018;48.588;10.836;2023-02-01T06:26:30;4.55;;;2.53;;
56141;SDS011;42018;48.588;10.836;2023-02-01T06:29:15;4.75;;;2.70;;
56141;SDS011;42018;48.588;10.836;2023-02-01T06:32:01;4.50;;;2.40;;
56141;SDS011;42018;48.588;10.836;2023-02-01T06:34:48;5.10;;;2.65;;
56141;SDS011;42018;48.588;10.836;2023-02-01T06:37:33;4.60;;;2.53;;
56141;SDS011;42018;48.588;10.836;2023-02-01T06:40:19;5.28;;;2.78;;
56141;SDS011;42018;48.588;10.836;2023-02-01T06:43:04;6.18;;;2.88;;
56141;SDS011;42018;48.588;10.836;2023-02-01T06:45:50;5.93;;;3.30;;
56141;SDS011;42018;48.588;10.836;2023-02-01T06:48:35;6.28;;;3.15;;
56141;SDS011;42018;48.588;10.836;2023-02-01T06:51:22;5.40;;;2.92;;
56141;SDS011;42018;48.588;10.836;2023-02-01T06:54:09;6.10;;;3.08;;
56141;SDS011;42018;48.588;10.836;2023-02-01T06:56:54;5.70;;;3.33;;
56141;SDS011;42018;48.588;10.836;2023-02-01T06:59:40;5.35;;;3.00;;
56141;SDS011;42018;48.588;10.836;2023-02-01T07:02:25;5.63;;;3.10;;
56141;SDS011;42018;48.588;10.836;2023-02-01T07:05:10;6.38;;;3.38;;
56141;SDS011;42018;48.588;10.836;2023-02-01T07:07:56;5.50;;;3.10;;
56141;SDS011;42018;48.588;10.836;2023-02-01T07:10:41;6.13;;;3.35;;
56141;SDS011;42018;48.588;10.836;2023-02-01T07:13:26;6.10;;;3.60;;
56141;SDS011;42018;48.588;10.836;2023-02-01T07:16:13;5.80;;;3.50;;
56141;SDS011;42018;48.588;10.836;2023-02-01T07:19:03;5.20;;;2.95;;
56141;SDS011;42018;48.588;10.836;2023-02-01T07:21:48;5.57;;;3.22;;
56141;SDS011;42018;48.588;10.836;2023-02-01T07:24:34;5.68;;;3.40;;
56141;SDS011;42018;48.588;10.836;2023-02-01T07:27:19;6.13;;;3.90;;
56141;SDS011;42018;48.588;10.836;2023-02-01T07:30:06;6.03;;;3.55;;
56141;SDS011;42018;48.588;10.836;2023-02-01T07:32:52;6.80;;;3.55;;
56141;SDS011;42018;48.588;10.836;2023-02-01T07:35:37;6.95;;;3.75;;
56141;SDS011;42018;48.588;10.836;2023-02-01T07:38:23;5.60;;;3.50;;
56141;SDS011;42018;48.588;10.836;2023-02-01T07:41:08;6.07;;;3.05;;
56141;SDS011;42018;48.588;10.836;2023-02-01T07:43:54;7.60;;;3.70;;
56141;SDS011;42018;48.588;10.836;2023-02-01T07:46:40;5.90;;;3.47;;
56141;SDS011;42018;48.588;10.836;2023-02-01T07:49:25;6.32;;;3.33;;
56141;SDS011;42018;48.588;10.836;2023-02-01T07:52:11;6.47;;;3.35;;
56141;SDS011;42018;48.588;10.836;2023-02-01T07:54:58;6.38;;;3.92;;
56141;SDS011;42018;48.588;10.836;2023-02-01T07:57:43;6.22;;;3.35;;
56141;SDS011;42018;48.588;10.836;2023-02-01T08:00:28;5.60;;;3.20;;
56141;SDS011;42018;48.588;10.836;2023-02-01T08:03:32;5.88;;;3.40;;
56141;SDS011;42018;48.588;10.836;2023-02-01T08:06:18;5.25;;;3.30;;
56141;SDS011;42018;48.588;10.836;2023-02-01T08:09:05;5.60;;;3.53;;
56141;SDS011;42018;48.588;10.836;2023-02-01T08:11:52;6.95;;;3.40;;
56141;SDS011;42018;48.588;10.836;2023-02-01T08:14:38;6.53;;;3.20;;
56141;SDS011;42018;48.588;10.836;2023-02-01T08:17:25;5.40;;;3.10;;
56141;SDS011;42018;48.588;10.836;2023-02-01T08:20:11;5.10;;;3.08;;
56141;SDS011;42018;48.588;10.836;2023-02-01T08:22:58;4.90;;;2.97;;
56141;SDS011;42018;48.588;10.836;2023-02-01T08:25:43;6.57;;;3.03;;
56141;SDS011;42018;48.588;10.836;2023-02-01T08:28:29;5.18;;;3.03;;
56141;SDS011;42018;48.588;10.836;2023-02-01T08:31:16;5.10;;;3.15;;
56141;SDS011;42018;48.588;10.836;2023-02-01T08:34:03;5.85;;;3.10;;
56141;SDS011;42018;48.588;10.836;2023-02-01T08:36:49;4.97;;;2.92;;
56141;SDS011;42018;48.588;10.836;2023-02-01T08:39:36;5.15;;;2.65;;
56141;SDS011;42018;48.588;10.836;2023-02-01T08:42:22;4.97;;;3.05;;
56141;SDS011;42018;48.588;10.836;2023-02-01T08:45:26;4.43;;;2.60;;
56141;SDS011;42018;48.588;10.836;2023-02-01T08:48:14;5.45;;;3.03;;
56141;SDS011;42018;48.588;10.836;2023-02-01T08:51:04;5.22;;;3.22;;
56141;SDS011;42018;48.588;10.836;2023-02-01T08:53:51;4.88;;;2.70;;
56141;SDS011;42018;48.588;10.836;2023-02-01T08:56:36;5.22;;;2.83;;
56141;SDS011;42018;48.588;10.836;2023-02-01T08:59:22;4.78;;;2.75;;
56141;SDS011;42018;48.588;10.836;2023-02-01T09:02:08;6.43;;;3.05;;
56141;SDS011;42018;48.588;10.836;2023-02-01T09:04:57;6.70;;;3.00;;
56141;SDS011;42018;48.588;10.836;2023-02-01T09:07:42;5.80;;;3.05;;
56141;SDS011;42018;48.588;10.836;2023-02-01T09:10:28;5.03;;;2.83;;
56141;SDS011;42018;48.588;10.836;2023-02-01T09:13:13;6.90;;;2.92;;
56141;SDS011;42018;48.588;10.836;2023-02-01T09:15:59;6.30;;;3.50;;
56141;SDS011;42018;48.588;10.836;2023-02-01T09:18:45;5.00;;;3.17;;
56141;SDS011;42018;48.588;10.836;2023-02-01T09:21:30;5.25;;;3.28;;
56141;SDS011;42018;48.588;10.836;2023-02-01T09:24:15;5.28;;;3.15;;
56141;SDS011;42018;48.588;10.836;2023-02-01T09:27:01;5.13;;;2.83;;
56141;SDS011;42018;48.588;10.836;2023-02-01T09:29:46;5.60;;;3.50;;
56141;SDS011;42018;48.588;10.836;2023-02-01T09:32:37;5.03;;;3.15;;
56141;SDS011;42018;48.588;10.836;2023-02-01T09:35:22;6.50;;;3.47;;
56141;SDS011;42018;48.588;10.836;2023-02-01T09:38:08;4.95;;;2.85;;
56141;SDS011;42018;48.588;10.836;2023-02-01T09:40:54;5.32;;;3.05;;
56141;SDS011;42018;48.588;10.836;2023-02-01T09:43:48;5.05;;;3.05;;
56141;SDS011;42018;48.588;10.836;2023-02-01T09:46:55;5.00;;;2.95;;
56141;SDS011;42018;48.588;10.836;2023-02-01T09:53:27;5.38;;;3.20;;
56141;SDS011;42018;48.588;10.836;2023-02-01T09:56:20;5.88;;;3.20;;
56141;SDS011;42018;48.588;10.836;2023-02-01T09:59:10;5.82;;;3.22;;
56141;SDS011;42018;48.588;10.836;2023-02-01T10:02:24;6.32;;;3.53;;
56141;SDS011;42018;48.588;10.836;2023-02-01T10:05:23;5.38;;;3.10;;
56141;SDS011;42018;48.588;10.836;2023-02-01T10:08:25;6.55;;;3.53;;
56141;SDS011;42018;48.588;10.836;2023-02-01T10:11:39;6.10;;;3.47;;
56141;SDS011;42018;48.588;10.836;2023-02-01T10:20:52;6.72;;;3.63;;
56141;SDS011;42018;48.588;10.836;2023-02-01T10:26:42;7.10;;;3.65;;
56141;SDS011;42018;48.588;10.836;2023-02-01T10:29:33;5.85;;;3.17;;
56141;SDS011;42018;48.588;10.836;2023-02-01T10:38:03;6.35;;;3.78;;
56141;SDS011;42018;48.588;10.836;2023-02-01T10:41:02;6.55;;;3.30;;
56141;SDS011;42018;48.588;10.836;2023-02-01T10:43:54;7.03;;;3.40;;
56141;SDS011;42018;48.588;10.836;2023-02-01T10:46:43;6.57;;;3.40;;
56141;SDS011;42018;48.588;10.836;2023-02-01T10:49:29;5.63;;;2.95;;
56141;SDS011;42018;48.588;10.836;2023-02-01T10:52:28;5.47;;;3.28;;
56141;SDS011;42018;48.588;10.836;2023-02-01T10:55:29;4.97;;;3.00;;
56141;SDS011;42018;48.588;10.836;2023-02-01T10:58:16;5.32;;;3.03;;
56141;SDS011;42018;48.588;10.836;2023-02-01T11:01:21;5.45;;;3.15;;
56141;SDS011;42018;48.588;10.836;2023-02-01T11:04:16;5.18;;;3.03;;
56141;SDS011;42018;48.588;10.836;2023-02-01T11:07:06;6.30;;;3.33;;
56141;SDS011;42018;48.588;10.836;2023-02-01T11:09:53;6.35;;;3.08;;
56141;SDS011;42018;48.588;10.836;2023-02-01T11:12:41;5.93;;;3.22;;
56141;SDS011;42018;48.588;10.836;2023-02-01T11:15:26;5.85;;;3.47;;
56141;SDS011;42018;48.588;10.836;2023-02-01T11:18:19;6.38;;;3.88;;
56141;SDS011;42018;48.588;10.836;2023-02-01T11:21:10;9.02;;;3.97;;
56141;SDS011;42018;48.588;10.836;2023-02-01T11:23:56;7.68;;;4.35;;
56141;SDS011;42018;48.588;10.836;2023-02-01T11:26:47;6.75;;;3.95;;
56141;SDS011;42018;48.588;10.836;2023-02-01T11:29:36;6.30;;;3.22;;
56141;SDS011;42018;48.588;10.836;2023-02-01T11:32:36;7.03;;;3.65;;
56141;SDS011;42018;48.588;10.836;2023-02-01T11:35:24;7.00;;;3.88;;
56141;SDS011;42018;48.588;10.836;2023-02-01T11:38:28;8.15;;;4.00;;
56141;SDS011;42018;48.588;10.836;2023-02-01T11:41:21;9.75;;;3.88;;
56141;SDS011;42018;48.588;10.836;2023-02-01T11:44:22;8.23;;;4.03;;
56141;SDS011;42018;48.588;10.836;2023-02-01T11:47:27;8.68;;;4.25;;
56141;SDS011;42018;48.588;10.836;2023-02-01T11:50:30;6.75;;;3.50;;
56141;SDS011;42018;48.588;10.836;2023-02-01T11:53:28;6.80;;;3.78;;
56141;SDS011;42018;48.588;10.836;2023-02-01T11:56:49;7.20;;;3.95;;
56141;SDS011;42018;48.588;10.836;2023-02-01T12:12:47;6.80;;;4.10;;
56141;SDS011;42018;48.588;10.836;2023-02-01T12:16:15;7.15;;;3.50;;
56141;SDS011;42018;48.588;10.836;2023-02-01T12:47:15;7.03;;;3.30;;
56141;SDS011;42018;48.588;10.836;2023-02-01T12:53:53;8.90;;;3.75;;
56141;SDS011;42018;48.588;10.836;2023-02-01T13:04:30;8.25;;;3.65;;
56141;SDS011;42018;48.588;10.836;2023-02-01T13:26:01;6.60;;;3.60;;
56141;SDS011;42018;48.588;10.836;2023-02-01T13:43:32;6.70;;;3.97;;
56141;SDS011;42018;48.588;10.836;2023-02-01T14:01:38;7.35;;;3.65;;
56141;SDS011;42018;48.588;10.836;2023-02-01T14:26:04;8.13;;;3.00;;
56141;SDS011;42018;48.588;10.836;2023-02-01T15:06:47;6.13;;;2.50;;
56141;SDS011;42018;48.588;10.836;2023-02-01T15:35:02;5.88;;;2.15;;
56141;SDS011;42018;48.588;10.836;2023-02-01T15:45:04;10.05;;;2.60;;
56141;SDS011;42018;48.588;10.836;2023-02-01T15:59:13;6.75;;;2.30;;
56141;SDS011;42018;48.588;10.836;2023-02-01T16:02:01;11.57;;;3.25;;
56141;SDS011;42018;48.588;10.836;2023-02-01T16:04:47;8.35;;;2.85;;
56141;SDS011;42018;48.588;10.836;2023-02-01T16:07:35;8.05;;;2.60;;
56141;SDS011;42018;48.588;10.836;2023-02-01T16:10:25;9.35;;;2.67;;
56141;SDS011;42018;48.588;10.836;2023-02-01T16:13:12;7.97;;;2.80;;
56141;SDS011;42018;48.588;10.836;2023-02-01T16:15:59;11.13;;;2.67;;
56141;SDS011;42018;48.588;10.836;2023-02-01T16:18:44;10.93;;;2.95;;
56141;SDS011;42018;48.588;10.836;2023-02-01T16:21:30;6.97;;;2.45;;
56141;SDS011;42018;48.588;10.836;2023-02-01T16:24:15;6.53;;;2.42;;
56141;SDS011;42018;48.588;10.836;2023-02-01T16:27:01;9.02;;;2.80;;
56141;SDS011;42018;48.588;10.836;2023-02-01T16:29:48;6.57;;;2.50;;
56141;SDS011;42018;48.588;10.836;2023-02-01T16:32:33;8.43;;;2.70;;
56141;SDS011;42018;48.588;10.836;2023-02-01T16:38:14;8.15;;;2.80;;
56141;SDS011;42018;48.588;10.836;2023-02-01T16:41:03;7.93;;;2.83;;
56141;SDS011;42018;48.588;10.836;2023-02-01T16:43:51;11.43;;;3.55;;
56141;SDS011;42018;48.588;10.836;2023-02-01T16:46:44;11.50;;;2.70;;
56141;SDS011;42018;48.588;10.836;2023-02-01T16:49:32;8.38;;;2.88;;
56141;SDS011;42018;48.588;10.836;2023-02-01T16:52:19;8.40;;;2.50;;
56141;SDS011;42018;48.588;10.836;2023-02-01T16:55:08;9.70;;;2.95;;
56141;SDS011;42018;48.588;10.836;2023-02-01T16:57:58;9.20;;;4.95;;
56141;SDS011;42018;48.588;10.836;2023-02-01T17:00:43;7.13;;;2.85;;
56141;SDS011;42018;48.588;10.836;2023-02-01T17:03:31;9.68;;;3.85;;
56141;SDS011;42018;48.588;10.836;2023-02-01T17:06:17;7.82;;;3.20;;
56141;SDS011;42018;48.588;10.836;2023-02-01T17:09:05;9.05;;;2.97;;
56141;SDS011;42018;48.588;10.836;2023-02-01T17:11:51;9.98;;;3.72;;
56141;SDS011;42018;48.588;10.836;2023-02-01T17:14:38;8.10;;;2.97;;
56141;SDS011;42018;48.588;10.836;2023-02-01T17:17:26;7.28;;;2.67;;
56141;SDS011;42018;48.588;10.836;2023-02-01T17:20:19;9.20;;;3.30;;
56141;SDS011;42018;48.588;10.836;2023-02-01T17:23:06;10.38;;;3.47;;
56141;SDS011;42018;48.588;10.836;2023-02-01T17:25:52;7.13;;;2.75;;
56141;SDS011;42018;48.588;10.836;2023-02-01T17:28:37;6.72;;;2.50;;
56141;SDS011;42018;48.588;10.836;2023-02-01T17:31:23;9.85;;;3.22;;
56141;SDS011;42018;48.588;10.836;2023-02-01T17:34:09;8.07;;;2.63;;
56141;SDS011;42018;48.588;10.836;2023-02-01T17:36:55;9.27;;;2.83;;
56141;SDS011;42018;48.588;10.836;2023-02-01T17:39:41;9.32;;;3.10;;
56141;SDS011;42018;48.588;10.836;2023-02-01T17:42:38;7.22;;;3.33;;
56141;SDS011;42018;48.588;10.836;2023-02-01T17:45:32;7.35;;;2.78;;
56141;SDS011;42018;48.588;10.836;2023-02-01T17:48:25;7.25;;;2.72;;
56141;SDS011;42018;48.588;10.836;2023-02-01T17:51:15;8.18;;;2.60;;
56141;SDS011;42018;48.588;10.836;2023-02-01T17:54:02;8.35;;;3.25;;
56141;SDS011;42018;48.588;10.836;2023-02-01T17:56:47;7.63;;;3.00;;
56141;SDS011;42018;48.588;10.836;2023-02-01T17:59:33;6.25;;;3.00;;
56141;SDS011;42018;48.588;10.836;2023-02-01T18:02:19;11.43;;;3.42;;
56141;SDS011;42018;48.588;10.836;2023-02-01T18:05:48;7.32;;;2.60;;
56141;SDS011;42018;48.588;10.836;2023-02-01T18:08:26;8.73;;;2.75;;
56141;SDS011;42018;48.588;10.836;2023-02-01T18:11:13;6.00;;;3.13;;
56141;SDS011;42018;48.588;10.836;2023-02-01T18:14:04;9.15;;;2.80;;
56141;SDS011;42018;48.588;10.836;2023-02-01T18:16:49;7.90;;;2.97;;
56141;SDS011;42018;48.588;10.836;2023-02-01T18:19:34;7.30;;;3.17;;
56141;SDS011;42018;48.588;10.836;2023-02-01T18:22:20;6.40;;;2.70;;
56141;SDS011;42018;48.588;10.836;2023-02-01T18:25:12;8.43;;;3.05;;
56141;SDS011;42018;48.588;10.836;2023-02-01T18:28:00;7.63;;;3.05;;
56141;SDS011;42018;48.588;10.836;2023-02-01T18:30:47;12.52;;;3.35;;
56141;SDS011;42018;48.588;10.836;2023-02-01T18:33:34;9.07;;;2.83;;
56141;SDS011;42018;48.588;10.836;2023-02-01T18:36:20;7.40;;;3.03;;
56141;SDS011;42018;48.588;10.836;2023-02-01T18:39:05;7.60;;;3.53;;
56141;SDS011;42018;48.588;10.836;2023-02-01T18:41:50;7.47;;;2.90;;
56141;SDS011;42018;48.588;10.836;2023-02-01T18:44:36;8.88;;;2.90;;
56141;SDS011;42018;48.588;10.836;2023-02-01T18:47:21;7.88;;;3.00;;
56141;SDS011;42018;48.588;10.836;2023-02-01T18:50:07;7.20;;;2.90;;
56141;SDS011;42018;48.588;10.836;2023-02-01T18:52:53;9.65;;;2.92;;
56141;SDS011;42018;48.588;10.836;2023-02-01T18:55:39;8.45;;;2.78;;
56141;SDS011;42018;48.588;10.836;2023-02-01T18:58:25;12.18;;;3.35;;
56141;SDS011;42018;48.588;10.836;2023-02-01T19:01:15;8.65;;;2.95;;
56141;SDS011;42018;48.588;10.836;2023-02-01T19:04:02;9.75;;;4.15;;
56141;SDS011;42018;48.588;10.836;2023-02-01T19:06:48;9.88;;;3.15;;
56141;SDS011;42018;48.588;10.836;2023-02-01T19:09:36;7.78;;;3.17;;
56141;SDS011;42018;48.588;10.836;2023-02-01T19:12:22;7.20;;;3.22;;
56141;SDS011;42018;48.588;10.836;2023-02-01T19:15:08;7.65;;;3.25;;
56141;SDS011;42018;48.588;10.836;2023-02-01T19:17:56;7.82;;;2.85;;
56141;SDS011;42018;48.588;10.836;2023-02-01T19:20:42;9.70;;;3.10;;
56141;SDS011;42018;48.588;10.836;2023-02-01T19:23:29;6.95;;;2.63;;
56141;SDS011;42018;48.588;10.836;2023-02-01T19:26:15;11.02;;;3.05;;
56141;SDS011;42018;48.588;10.836;2023-02-01T19:29:01;5.53;;;2.60;;
56141;SDS011;42018;48.588;10.836;2023-02-01T19:31:49;7.93;;;2.90;;
56141;SDS011;42018;48.588;10.836;2023-02-01T19:34:34;8.60;;;3.08;;
56141;SDS011;42018;48.588;10.836;2023-02-01T19:37:20;10.82;;;2.95;;
56141;SDS011;42018;48.588;10.836;2023-02-01T19:40:06;6.60;;;2.90;;
56141;SDS011;42018;48.588;10.836;2023-02-01T19:42:56;10.07;;;3.55;;
56141;SDS011;42018;48.588;10.836;2023-02-01T19:45:41;9.38;;;3.05;;
56141;SDS011;42018;48.588;10.836;2023-02-01T19:48:27;7.90;;;2.92;;
56141;SDS011;42018;48.588;10.836;2023-02-01T19:51:13;9.27;;;3.35;;
56141;SDS011;42018;48.588;10.836;2023-02-01T19:53:59;9.40;;;3.13;;
56141;SDS011;42018;48.588;10.836;2023-02-01T19:56:44;10.55;;;3.10;;
56141;SDS011;42018;48.588;10.836;2023-02-01T19:59:31;8.85;;;3.20;;
56141;SDS011;42018;48.588;10.836;2023-02-01T20:02:17;6.90;;;2.92;;
56141;SDS011;42018;48.588;10.836;2023-02-01T20:05:02;7.72;;;2.97;;
56141;SDS011;42018;48.588;10.836;2023-02-01T20:07:48;8.23;;;2.70;;
56141;SDS011;42018;48.588;10.836;2023-02-01T20:10:33;9.38;;;3.58;;
56141;SDS011;42018;48.588;10.836;2023-02-01T20:13:19;9.40;;;3.30;;
56141;SDS011;42018;48.588;10.836;2023-02-01T20:16:04;8.38;;;2.60;;
56141;SDS011;42018;48.588;10.836;2023-02-01T20:18:50;8.80;;;3.20;;
56141;SDS011;42018;48.588;10.836;2023-02-01T20:21:36;8.38;;;3.38;;
56141;SDS011;42018;48.588;10.836;2023-02-01T20:24:23;5.68;;;2.50;;
56141;SDS011;42018;48.588;10.836;2023-02-01T20:27:08;5.97;;;2.83;;
56141;SDS011;42018;48.588;10.836;2023-02-01T20:29:57;10.13;;;3.05;;
56141;SDS011;42018;48.588;10.836;2023-02-01T20:32:42;9.75;;;3.03;;
56141;SDS011;42018;48.588;10.836;2023-02-01T20:35:27;7.55;;;2.90;;
56141;SDS011;42018;48.588;10.836;2023-02-01T20:38:13;11.63;;;3.45;;
56141;SDS011;42018;48.588;10.836;2023-02-01T20:41:06;9.20;;;3.13;;
56141;SDS011;42018;48.588;10.836;2023-02-01T20:43:53;6.68;;;2.90;;
56141;SDS011;42018;48.588;10.836;2023-02-01T20:46:38;6.97;;;2.63;;
56141;SDS011;42018;48.588;10.836;2023-02-01T20:49:23;14.45;;;3.13;;
56141;SDS011;42018;48.588;10.836;2023-02-01T20:52:09;6.30;;;2.25;;
56141;SDS011;42018;48.588;10.836;2023-02-01T20:54:54;6.63;;;2.65;;
56141;SDS011;42018;48.588;10.836;2023-02-01T20:57:40;5.45;;;2.40;;